createdAt,value
2018-07-01T00:01:23.623Z,58.40
2018-07-01T00:03:51.461Z,58.60
2018-07-01T00:06:19.314Z,58.60
2018-07-01T00:09:05.570Z,59.30
2018-07-01T00:11:33.472Z,58.80
2018-07-01T00:14:04.768Z,59.00
2018-07-01T00:16:32.610Z,59.20
2018-07-01T00:19:01.376Z,59.10
2018-07-01T00:21:29.142Z,59.50
2018-07-01T00:23:58.029Z,59.90
2018-07-01T00:26:25.840Z,60.20
2018-07-01T00:28:53.640Z,61.00
2018-07-01T00:31:21.396Z,61.60
2018-07-01T00:33:49.274Z,61.90
2018-07-01T00:36:17.081Z,62.50
2018-07-01T00:38:44.873Z,62.90
2018-07-01T00:41:47.404Z,63.70
2018-07-01T00:44:15.284Z,63.50
2018-07-01T00:46:43.044Z,63.30
2018-07-01T00:49:10.883Z,63.70
2018-07-01T00:51:38.709Z,63.60
2018-07-01T00:54:07.528Z,63.70
2018-07-01T00:56:35.354Z,63.60
2018-07-01T00:59:03.626Z,63.60
2018-07-01T01:01:31.588Z,63.70
2018-07-01T01:03:59.400Z,63.60
2018-07-01T01:06:27.240Z,64.70
2018-07-01T01:08:55.182Z,64.40
2018-07-01T01:11:23.010Z,65.00
2018-07-01T01:13:50.863Z,64.60
2018-07-01T01:16:18.731Z,65.10
2018-07-01T01:19:20.774Z,65.10
2018-07-01T01:21:48.662Z,64.90
2018-07-01T01:24:16.455Z,65.20
2018-07-01T01:26:44.521Z,65.20
2018-07-01T01:29:12.383Z,65.40
2018-07-01T01:31:40.197Z,65.50
2018-07-01T01:34:09.430Z,65.50
2018-07-01T01:36:38.563Z,65.10
2018-07-01T01:39:08.476Z,65.00
2018-07-01T01:41:39.743Z,65.60
2018-07-01T01:44:11.664Z,65.40
2018-07-01T01:46:52.769Z,65.90
2018-07-01T01:49:28.615Z,66.30
2018-07-01T01:52:06.719Z,66.80
2018-07-01T01:54:55.318Z,66.90
2018-07-01T01:57:28.106Z,67.30
2018-07-01T01:59:59.966Z,67.50
2018-07-01T02:02:39.081Z,68.20
2018-07-01T02:07:14.422Z,68.10
2018-07-01T02:09:42.288Z,67.90
2018-07-01T02:12:11.996Z,68.00
2018-07-01T02:17:51.537Z,68.20
2018-07-01T02:20:21.645Z,69.60
2018-07-01T02:25:53.047Z,70.00
2018-07-01T02:28:20.942Z,70.40
2018-07-01T02:30:48.782Z,70.20
2018-07-01T02:33:17.557Z,70.50
2018-07-01T02:35:47.094Z,71.10
2018-07-01T02:38:14.966Z,70.60
2018-07-01T02:40:42.791Z,71.90
2018-07-01T02:43:10.662Z,72.40
2018-07-01T02:45:38.492Z,72.60
2018-07-01T02:48:06.468Z,72.50
2018-07-01T02:50:34.237Z,72.40
2018-07-01T02:53:02.091Z,72.50
2018-07-01T02:55:29.881Z,72.70
2018-07-01T02:57:57.686Z,72.60
2018-07-01T03:00:25.522Z,72.10
2018-07-01T03:02:53.324Z,72.00
2018-07-01T03:05:21.115Z,73.10
2018-07-01T03:08:32.236Z,73.40
2018-07-01T03:11:00.144Z,72.90
2018-07-01T03:13:27.976Z,72.50
2018-07-01T03:15:55.819Z,73.40
2018-07-01T03:18:23.635Z,71.90
2018-07-01T03:20:51.414Z,72.80
2018-07-01T03:23:19.228Z,73.30
2018-07-01T03:25:47.080Z,74.30
2018-07-01T03:28:14.949Z,72.40
2018-07-01T03:30:42.947Z,71.70
2018-07-01T03:33:11.068Z,72.60
2018-07-01T03:35:39.064Z,73.20
2018-07-01T03:38:07.012Z,71.70
2018-07-01T03:40:34.889Z,69.70
2018-07-01T03:43:02.719Z,70.70
2018-07-01T03:45:30.754Z,68.80
2018-07-01T03:47:58.600Z,68.30
2018-07-01T03:50:26.415Z,67.50
2018-07-01T03:52:54.230Z,65.90
2018-07-01T03:55:22.071Z,64.00
2018-07-01T03:57:49.917Z,63.70
2018-07-01T04:00:19.019Z,63.30
2018-07-01T04:02:46.821Z,63.30
2018-07-01T04:05:14.593Z,63.30
2018-07-01T04:07:42.415Z,62.80
2018-07-01T04:10:31.020Z,62.90
2018-07-01T04:12:58.900Z,63.50
2018-07-01T04:15:26.737Z,62.90
2018-07-01T04:17:54.519Z,62.50
2018-07-01T04:20:22.350Z,62.60
2018-07-01T04:22:52.752Z,62.00
2018-07-01T04:25:20.539Z,61.80
2018-07-01T04:27:48.306Z,61.40
2018-07-01T04:30:16.181Z,61.00
2018-07-01T04:32:43.993Z,60.20
2018-07-01T04:35:11.778Z,59.80
2018-07-01T04:37:39.582Z,59.60
2018-07-01T04:40:07.353Z,59.20
2018-07-01T04:42:35.159Z,58.90
2018-07-01T04:45:05.202Z,58.20
2018-07-01T04:47:33.034Z,57.80
2018-07-01T04:50:40.125Z,57.60
2018-07-01T04:53:09.561Z,58.10
2018-07-01T04:55:37.607Z,57.40
2018-07-01T04:58:05.800Z,57.70
2018-07-01T05:00:34.016Z,57.20
2018-07-01T05:03:01.940Z,57.30
2018-07-01T05:05:29.939Z,57.70
2018-07-01T05:07:57.767Z,56.50
2018-07-01T05:10:25.584Z,56.30
2018-07-01T05:12:53.433Z,56.10
2018-07-01T05:15:21.472Z,56.30
2018-07-01T05:17:49.303Z,56.20
2018-07-01T05:20:17.120Z,55.70
2018-07-01T05:22:44.918Z,55.60
2018-07-01T05:25:12.742Z,55.40
2018-07-01T05:27:40.636Z,55.20
2018-07-01T05:30:08.560Z,55.10
2018-07-01T05:32:36.386Z,54.80
2018-07-01T05:35:04.219Z,54.90
2018-07-01T05:37:32.021Z,54.60
2018-07-01T05:39:59.803Z,54.60
2018-07-01T05:42:27.645Z,53.80
2018-07-01T05:44:55.610Z,53.60
2018-07-01T05:47:23.478Z,53.60
2018-07-01T05:49:51.350Z,53.80
2018-07-01T05:52:20.165Z,54.30
2018-07-01T05:54:48.008Z,54.50
2018-07-01T05:57:15.865Z,54.40
2018-07-01T05:59:43.693Z,53.10
2018-07-01T06:02:12.529Z,53.90
2018-07-01T06:04:40.372Z,54.30
2018-07-01T06:07:09.180Z,53.20
2018-07-01T06:09:37.024Z,54.00
2018-07-01T06:12:04.964Z,52.70
2018-07-01T06:14:32.778Z,53.10
2018-07-01T06:17:31.816Z,53.90
2018-07-01T06:19:59.730Z,53.00
2018-07-01T06:22:54.283Z,53.60
2018-07-01T06:25:22.148Z,53.40
2018-07-01T06:27:49.967Z,53.20
2018-07-01T06:30:17.789Z,52.20
2018-07-01T06:32:45.645Z,51.80
2018-07-01T06:35:13.522Z,51.20
2018-07-01T06:37:42.301Z,50.90
2018-07-01T06:40:10.137Z,51.70
2018-07-01T06:42:38.024Z,51.10
2018-07-01T06:45:14.214Z,51.60
2018-07-01T06:47:42.148Z,51.80
2018-07-01T06:50:09.989Z,51.80
2018-07-01T06:52:37.811Z,51.70
2018-07-01T06:55:05.644Z,50.70
2018-07-01T06:57:33.506Z,51.80
2018-07-01T07:00:01.364Z,50.30
2018-07-01T07:02:29.690Z,50.90
2018-07-01T07:05:21.830Z,51.10
2018-07-01T07:07:49.696Z,51.10
2018-07-01T07:10:17.466Z,50.50
2018-07-01T07:12:45.288Z,49.60
2018-07-01T07:15:13.193Z,49.30
2018-07-01T07:17:41.057Z,49.90
2018-07-01T07:20:08.858Z,50.70
2018-07-01T07:22:36.648Z,50.50
2018-07-01T07:25:04.534Z,50.50
2018-07-01T07:27:32.311Z,50.60
2018-07-01T07:30:00.080Z,51.70
2018-07-01T07:36:06.106Z,49.90
2018-07-01T07:38:33.913Z,50.90
2018-07-01T07:41:01.669Z,50.30
2018-07-01T07:43:29.635Z,49.60
2018-07-01T07:45:57.518Z,50.20
2018-07-01T07:48:25.389Z,49.50
2018-07-01T07:50:53.201Z,51.30
2018-07-01T07:53:21.051Z,51.10
2018-07-01T07:55:48.912Z,48.90
2018-07-01T07:58:16.740Z,49.50
2018-07-01T08:00:44.514Z,49.20
2018-07-01T08:03:14.660Z,48.80
2018-07-01T08:05:42.739Z,49.20
2018-07-01T08:08:10.534Z,48.80
2018-07-01T08:10:38.444Z,49.70
2018-07-01T08:13:06.562Z,50.30
2018-07-01T08:15:34.431Z,50.10
2018-07-01T08:20:37.573Z,46.90
2018-07-01T08:23:05.450Z,46.80
2018-07-01T08:25:33.569Z,47.00
2018-07-01T08:28:01.374Z,46.40
2018-07-01T08:30:29.373Z,48.40
2018-07-01T08:32:57.174Z,47.10
2018-07-01T08:35:25.092Z,46.00
2018-07-01T08:37:52.924Z,46.30
2018-07-01T08:40:20.900Z,46.40
2018-07-01T08:46:09.519Z,46.70
2018-07-01T08:48:37.482Z,45.30
2018-07-01T08:51:05.551Z,45.30
2018-07-01T08:53:33.508Z,46.30
2018-07-01T08:56:01.573Z,44.60
2018-07-01T08:58:29.464Z,46.50
2018-07-01T09:00:57.548Z,45.70
2018-07-01T09:03:25.468Z,46.10
2018-07-01T09:05:53.645Z,45.00
2018-07-01T09:08:21.569Z,44.30
2018-07-01T09:10:49.578Z,45.40
2018-07-01T09:13:17.525Z,44.00
2018-07-01T09:15:46.223Z,43.80
2018-07-01T09:18:13.955Z,45.30
2018-07-01T09:20:41.688Z,44.70
2018-07-01T09:23:27.681Z,46.70
2018-07-01T09:25:55.469Z,44.50
2018-07-01T09:28:23.247Z,44.50
2018-07-01T09:31:18.248Z,42.60
2018-07-01T09:33:46.022Z,44.20
2018-07-01T09:36:13.929Z,44.00
2018-07-01T10:14:30.128Z,43.30
2018-07-01T10:17:19.142Z,42.80
2018-07-01T10:19:46.948Z,44.80
2018-07-01T10:22:15.459Z,44.50
2018-07-01T10:24:43.221Z,42.40
2018-07-01T10:27:10.984Z,42.50
2018-07-01T10:29:38.778Z,44.60
2018-07-01T10:32:06.641Z,43.90
2018-07-01T10:34:34.385Z,43.20
2018-07-01T10:37:02.141Z,42.00
2018-07-01T10:39:29.901Z,41.70
2018-07-01T10:41:57.632Z,41.90
2018-07-01T10:44:25.433Z,42.00
2018-07-01T10:46:54.194Z,42.20
2018-07-01T10:49:21.935Z,41.00
2018-07-01T10:51:49.822Z,41.40
2018-07-01T10:54:17.609Z,40.80
2018-07-01T10:56:45.411Z,39.50
2018-07-01T10:59:13.194Z,39.80
2018-07-01T11:01:40.959Z,40.50
2018-07-01T11:04:08.805Z,40.80
2018-07-01T11:06:36.594Z,38.70
2018-07-01T11:09:07.982Z,39.80
2018-07-01T11:11:35.808Z,41.30
2018-07-01T11:14:03.701Z,40.60
2018-07-01T11:16:31.530Z,39.60
2018-07-01T11:21:53.698Z,37.80
2018-07-01T11:24:22.700Z,38.00
2018-07-01T11:26:50.756Z,38.20
2018-07-01T11:29:18.515Z,37.10
2018-07-01T11:31:46.466Z,36.40
2018-07-01T11:34:14.238Z,35.30
2018-07-01T11:36:42.253Z,36.30
2018-07-01T11:39:10.695Z,38.40
2018-07-01T11:41:38.709Z,37.10
2018-07-01T11:44:06.632Z,37.20
2018-07-01T11:46:34.395Z,37.70
2018-07-01T11:49:02.198Z,37.70
2018-07-01T11:51:29.993Z,37.00
2018-07-01T11:53:57.808Z,35.90
2018-07-01T11:56:25.566Z,36.50
2018-07-01T11:59:09.787Z,36.10
2018-07-01T12:01:37.578Z,36.40
2018-07-01T12:04:05.468Z,35.40
2018-07-01T12:06:34.920Z,37.60
2018-07-01T12:09:04.872Z,36.10
2018-07-01T12:11:33.947Z,36.90
2018-07-01T12:14:01.796Z,35.50
2018-07-01T12:16:30.777Z,36.90
2018-07-01T12:18:58.942Z,35.50
2018-07-01T12:21:28.146Z,37.30
2018-07-01T12:23:56.022Z,37.40
2018-07-01T12:26:24.843Z,36.10
2018-07-01T12:28:52.758Z,35.80
2018-07-01T12:31:20.649Z,36.50
2018-07-01T12:33:48.460Z,36.40
2018-07-01T12:36:21.033Z,36.20
2018-07-01T12:38:48.898Z,34.00
2018-07-01T12:41:17.778Z,35.00
2018-07-01T12:43:45.620Z,32.80
2018-07-01T12:46:18.373Z,35.70
2018-07-01T12:48:46.441Z,35.60
2018-07-01T12:51:15.536Z,33.50
2018-07-01T12:53:43.343Z,35.80
2018-07-01T12:56:11.207Z,37.30
2018-07-01T12:58:39.005Z,31.90
2018-07-01T13:01:06.843Z,32.70
2018-07-01T13:04:01.696Z,33.60
2018-07-01T13:08:58.702Z,34.60
2018-07-01T13:11:26.606Z,33.00
2018-07-01T13:13:54.565Z,34.90
2018-07-01T13:16:22.543Z,33.10
2018-07-01T13:18:50.368Z,33.80
2018-07-01T13:21:18.270Z,32.90
2018-07-01T13:23:46.239Z,32.50
2018-07-01T13:26:14.142Z,33.40
2018-07-01T13:28:41.899Z,33.40
2018-07-01T13:31:09.746Z,33.30
2018-07-01T13:33:37.528Z,33.80
2018-07-01T13:36:06.530Z,33.50
2018-07-01T13:38:34.565Z,33.90
2018-07-01T13:41:04.629Z,33.60
2018-07-01T13:43:32.718Z,32.40
2018-07-01T13:46:01.839Z,33.80
2018-07-01T13:48:30.377Z,34.00
2018-07-01T13:50:58.585Z,32.20
2018-07-01T13:53:26.669Z,32.30
2018-07-01T13:55:54.922Z,31.70
2018-07-01T13:58:22.927Z,31.70
2018-07-01T14:00:52.050Z,32.30
2018-07-01T14:03:20.020Z,31.70
2018-07-01T14:05:48.092Z,32.60
2018-07-01T14:08:16.037Z,31.40
2018-07-01T14:10:44.299Z,32.00
2018-07-01T14:13:12.250Z,31.80
2018-07-01T14:15:40.196Z,31.30
2018-07-01T14:18:08.261Z,31.20
2018-07-01T14:20:36.354Z,32.00
2018-07-01T14:23:04.352Z,32.40
2018-07-01T14:25:32.414Z,31.50
2018-07-01T14:28:00.300Z,33.50
2018-07-01T14:30:29.396Z,32.00
2018-07-01T14:32:57.375Z,33.10
2018-07-01T14:35:25.567Z,31.80
2018-07-01T14:37:53.877Z,31.90
2018-07-01T14:40:34.644Z,32.50
2018-07-01T14:43:02.662Z,31.90
2018-07-01T14:45:30.470Z,32.20
2018-07-01T14:47:58.474Z,31.80
2018-07-01T14:50:26.248Z,31.60
2018-07-01T14:52:55.300Z,30.20
2018-07-01T14:55:23.063Z,31.40
2018-07-01T14:57:58.915Z,30.60
2018-07-01T15:00:26.829Z,31.10
2018-07-01T15:02:54.747Z,31.10
2018-07-01T15:05:22.844Z,31.00
2018-07-01T15:07:55.606Z,30.70
2018-07-01T15:10:23.753Z,30.70
2018-07-01T15:12:51.807Z,30.40
2018-07-01T15:15:19.880Z,31.00
2018-07-01T15:17:47.998Z,29.70
2018-07-01T15:20:15.938Z,30.10
2018-07-01T15:22:44.104Z,29.40
2018-07-01T15:25:12.068Z,29.50
2018-07-01T15:27:45.879Z,29.50
2018-07-01T15:30:14.056Z,30.40
2018-07-01T15:32:56.530Z,29.80
2018-07-01T15:35:25.436Z,29.70
2018-07-01T15:37:53.702Z,29.40
2018-07-01T15:40:21.696Z,29.10
2018-07-01T15:42:51.040Z,29.10
2018-07-01T15:45:19.034Z,29.30
2018-07-01T15:47:46.995Z,29.40
2018-07-01T15:50:14.878Z,28.90
2018-07-01T15:52:47.942Z,28.00
2018-07-01T15:55:15.873Z,27.40
2018-07-01T15:57:48.696Z,28.40
2018-07-01T16:00:16.801Z,28.90
2018-07-01T16:02:44.685Z,28.80
2018-07-01T16:05:13.659Z,28.10
2018-07-01T16:07:41.437Z,28.70
2018-07-01T16:10:09.469Z,29.50
2018-07-01T16:12:37.257Z,28.90
2018-07-01T16:15:26.909Z,28.90
2018-07-01T16:17:55.041Z,28.20
2018-07-01T16:20:22.956Z,28.90
2018-07-01T16:22:51.267Z,28.70
2018-07-01T16:25:27.637Z,29.10
2018-07-01T16:28:01.055Z,28.00
2018-07-01T16:30:31.223Z,28.50
2018-07-01T16:32:59.184Z,27.70
2018-07-01T16:35:27.193Z,28.80
2018-07-01T16:37:55.311Z,27.70
2018-07-01T16:40:23.354Z,28.40
2018-07-01T16:42:51.314Z,29.30
2018-07-01T16:45:19.301Z,28.20
2018-07-01T16:47:47.271Z,28.50
2018-07-01T16:50:15.193Z,29.60
2018-07-01T16:52:43.217Z,29.10
2018-07-01T16:55:11.136Z,28.10
2018-07-01T16:57:39.270Z,29.20
2018-07-01T17:00:07.841Z,29.50
2018-07-01T17:02:35.840Z,29.00
2018-07-01T17:05:03.863Z,28.30
2018-07-01T17:07:31.864Z,27.90
2018-07-01T17:09:59.872Z,28.60
2018-07-01T17:12:27.911Z,28.20
2018-07-01T17:14:55.952Z,27.70
2018-07-01T17:17:23.797Z,28.50
2018-07-01T17:19:51.669Z,27.70
2018-07-01T17:22:19.518Z,27.90
2018-07-01T17:24:48.268Z,27.70
2018-07-01T17:27:16.106Z,27.60
2018-07-01T17:29:43.890Z,27.90
2018-07-01T17:32:17.319Z,28.50
2018-07-01T17:34:45.143Z,28.50
2018-07-01T17:37:13.368Z,30.10
2018-07-01T17:39:41.171Z,29.70
2018-07-01T17:42:08.961Z,29.70
2018-07-01T17:44:36.707Z,29.60
2018-07-01T17:47:04.500Z,30.10
2018-07-01T17:49:32.255Z,31.30
2018-07-01T17:52:00.090Z,32.80
2018-07-01T17:54:27.834Z,32.00
2018-07-01T17:56:56.245Z,31.30
2018-07-01T17:59:24.083Z,29.90
2018-07-01T18:01:51.896Z,30.60
2018-07-01T18:04:20.670Z,30.40
2018-07-01T18:06:48.435Z,30.80
2018-07-01T18:09:16.250Z,30.50
2018-07-01T18:11:44.062Z,30.30
2018-07-01T18:14:11.879Z,30.80
2018-07-01T18:16:39.690Z,31.60
2018-07-01T18:19:07.494Z,31.50
2018-07-01T18:21:40.298Z,31.80
2018-07-01T18:24:27.545Z,32.70
2018-07-01T18:26:30.988Z,31.70
2018-07-01T18:29:08.188Z,31.40
2018-07-01T18:31:26.598Z,32.70
2018-07-01T18:33:54.389Z,32.80
2018-07-01T18:36:22.348Z,33.30
2018-07-01T18:38:50.282Z,34.60
2018-07-01T18:41:18.116Z,35.00
2018-07-01T18:43:45.885Z,35.30
2018-07-01T18:46:13.935Z,35.70
2018-07-01T18:48:41.824Z,35.30
2018-07-01T18:51:09.806Z,35.80
2018-07-01T18:53:37.716Z,35.40
2018-07-01T18:56:05.813Z,34.70
2018-07-01T18:58:33.782Z,34.70
2018-07-01T19:01:01.835Z,34.40
2018-07-01T19:03:29.813Z,35.40
2018-07-01T19:05:57.886Z,35.60
2018-07-01T19:08:25.794Z,35.50
2018-07-01T19:10:53.783Z,35.50
2018-07-01T19:13:21.692Z,36.20
2018-07-01T19:15:49.624Z,36.50
2018-07-01T19:18:17.557Z,37.00
2018-07-01T19:20:45.665Z,37.70
2018-07-01T19:23:13.647Z,38.70
2018-07-01T19:25:41.618Z,38.40
2018-07-01T19:28:09.542Z,38.90
2018-07-01T19:30:37.541Z,39.60
2018-07-01T19:33:05.424Z,39.80
2018-07-01T19:35:33.542Z,40.50
2018-07-01T19:38:01.470Z,42.50
2018-07-01T19:40:29.436Z,42.60
2018-07-01T19:42:57.626Z,43.60
2018-07-01T19:48:15.024Z,44.90
2018-07-01T19:50:50.920Z,46.90
2018-07-01T19:53:18.777Z,47.90
2018-07-01T19:56:12.315Z,48.50
2018-07-01T19:58:40.259Z,48.30
2018-07-01T20:01:08.178Z,47.40
2018-07-01T20:03:36.274Z,48.40
2018-07-01T20:06:05.853Z,48.90
2018-07-01T20:08:36.339Z,48.70
2018-07-01T20:11:04.507Z,48.50
2018-07-01T20:13:32.410Z,47.70
2018-07-01T20:16:09.431Z,46.70
2018-07-01T20:18:40.323Z,46.60
2018-07-01T20:21:08.123Z,47.20
2018-07-01T20:23:35.990Z,47.80
2018-07-01T20:26:03.876Z,48.30
2018-07-01T20:28:31.731Z,49.20
2018-07-01T20:30:59.628Z,48.90
2018-07-01T20:33:27.455Z,48.60
2018-07-01T20:35:55.247Z,49.20
2018-07-01T20:38:23.044Z,49.70
2018-07-01T20:40:50.866Z,50.60
2018-07-01T20:43:18.796Z,50.60
2018-07-01T20:45:46.614Z,51.10
2018-07-01T20:48:14.714Z,50.70
2018-07-01T20:50:42.515Z,50.70
2018-07-01T20:56:44.963Z,50.50
2018-07-01T20:59:12.752Z,50.50
2018-07-01T21:01:55.633Z,50.50
2018-07-01T21:04:23.427Z,50.80
2018-07-01T21:06:51.297Z,50.80
2018-07-01T21:09:19.122Z,50.50
2018-07-01T21:11:47.089Z,50.70
2018-07-01T21:14:15.036Z,50.60
2018-07-01T21:16:42.988Z,50.50
2018-07-01T21:19:11.867Z,51.00
2018-07-01T21:21:39.641Z,51.20
2018-07-01T21:24:07.432Z,51.40
2018-07-01T21:26:35.275Z,51.30
2018-07-01T21:29:03.282Z,51.80
2018-07-01T21:31:32.147Z,51.30
2018-07-01T21:33:59.977Z,51.20
2018-07-01T21:36:27.806Z,51.20
2018-07-01T21:38:55.664Z,51.20
2018-07-01T21:42:00.071Z,51.30
2018-07-01T21:44:27.947Z,51.40
2018-07-01T21:46:57.761Z,52.10
2018-07-01T21:49:25.603Z,51.90
2018-07-01T21:54:58.926Z,52.60
2018-07-01T21:57:26.815Z,52.40
2018-07-01T21:59:54.663Z,52.50
2018-07-01T22:02:23.499Z,52.50
2018-07-01T22:04:51.359Z,53.10
2018-07-01T22:07:19.175Z,53.10
2018-07-01T22:09:47.127Z,53.10
2018-07-01T22:12:27.075Z,53.40
2018-07-01T22:17:07.748Z,53.90
2018-07-01T22:19:36.710Z,54.00
2018-07-01T22:22:04.734Z,54.20
2018-07-01T22:27:27.802Z,54.30
2018-07-01T22:29:55.857Z,54.60
2018-07-01T22:32:25.065Z,54.70
2018-07-01T22:34:53.121Z,54.60
2018-07-01T22:37:21.162Z,55.00
2018-07-01T22:40:01.657Z,55.20
2018-07-01T22:42:29.535Z,56.10
2018-07-01T22:44:57.333Z,56.20
2018-07-01T22:47:26.157Z,56.70
2018-07-01T22:49:53.966Z,56.80
2018-07-01T22:52:22.023Z,57.20
2018-07-01T22:54:49.879Z,57.70
2018-07-01T22:57:17.761Z,57.70
2018-07-01T22:59:45.757Z,58.00
2018-07-01T23:02:52.280Z,58.40
2018-07-01T23:05:20.912Z,58.60
2018-07-01T23:07:50.277Z,59.00
2018-07-01T23:10:19.491Z,59.70
2018-07-01T23:12:47.552Z,59.10
2018-07-01T23:15:15.381Z,59.40
2018-07-01T23:17:43.291Z,59.30
2018-07-01T23:20:11.214Z,59.20
2018-07-01T23:22:39.328Z,59.00
2018-07-01T23:25:07.188Z,59.20
2018-07-01T23:27:35.007Z,59.50
2018-07-01T23:30:02.945Z,60.00
2018-07-01T23:32:30.767Z,60.40
2018-07-01T23:34:58.632Z,60.90
2018-07-01T23:37:26.714Z,60.90
2018-07-01T23:39:57.907Z,60.50
2018-07-01T23:42:33.135Z,61.00
2018-07-01T23:45:01.105Z,61.60
2018-07-01T23:47:30.166Z,62.40
2018-07-01T23:49:58.064Z,62.60
2018-07-01T23:52:26.111Z,63.40
2018-07-01T23:54:54.941Z,63.60
2018-07-01T23:57:22.717Z,63.50
2018-07-01T23:59:50.572Z,63.50
